TFM - Tactical Decision Aid (Experimental) INFO Settings
ID: Runway Winds: CIG/VIS Threshold: METAR Board: Map:

KTUP - Tupelo Rgnl

Updated at: 2307 UTC 20 Feb 2018
Latest TAF at: 2101 UTC 20 Feb 2018

TAF Board

Time2253Z21/00Z21/01Z21/02Z21/03Z21/04Z21/05Z21/06Z21/07Z21/08Z21/09Z21/10Z21/11Z21/12Z
TypeOBSPRVLPRVLPRVLPRVLPRVLPRVLPRVLPRVLPRVLPRVLPRVLPRVLPRVL
VIS10>6>6>6>6>6>6>6>6>6>6>6>6>6
CIG8035353535353515151515151515
CoverBKNBKNBKNBKNBKNBKNBKNOVCOVCOVCOVCOVCOVCOVC
FltCatVFRVFRVFRVFRVFRVFRVFRMVFRMVFRMVFRMVFRMVFRMVFRMVFR
WX--------------VCSHVCSHVCSHVCSHVCSHVCSHVCSH
WDir140180180180180180180200200200200200200200
WSpd1210101010101010101010101010
WGst--------------15151515151515
TAF
KTUP 202101Z 2021/2118 15010G15KT P6SM SCT025 BKN060 BKN250
  FM210000 18010KT P6SM BKN035 BKN250
  FM210600 20010G15KT P6SM VCSH SCT008 OVC015
  FM211300 20010G15KT P6SM VCSH OVC008


METAR
KTUP 202253Z 14012KT 10SM BKN080 24/16 A3012 RMK AO2 SLP196 T02440161
KTUP 202153Z 13012G17KT 10SM OVC075 24/16 A3012 RMK AO2 SLP197 T02440161

TAF/METAR Board Legend

Potential Impact
  None Marginal Slight Moderate High
Visibility (sm) >5 3≤X≤5 2≤X<3 0.5≤X<2 <0.5
Ceiling (100 ft) >30 10≤X≤30 6≤X<10 2≤X<6 <2
Wind Speed (kt) <10 10≤X<20 20≤X<30 ≥30
Wind Gust (kt) <15 15≤X<25 25≤X<35 ≥35
Weather No Wx Reported VCTS -TS,-FZRA TS,FZRA +TS,+FZRA





Page loaded:  23:07 UTC  |   03:07 PM Pacific  |   04:07 PM Mountain  |   05:07 PM Central  |   06:07 PM Eastern